sensor_id;sensor_type;location;lat;lon;timestamp;P1;durP1;ratioP1;P2;durP2;ratioP2
29902;SDS011;30288;50.514;9.678;2023-05-19T00:01:45;8.27;;;2.60;;
29902;SDS011;30288;50.514;9.678;2023-05-19T00:03:54;13.00;;;2.70;;
29902;SDS011;30288;50.514;9.678;2023-05-19T00:06:03;9.20;;;3.53;;
29902;SDS011;30288;50.514;9.678;2023-05-19T00:08:10;11.30;;;2.75;;
29902;SDS011;30288;50.514;9.678;2023-05-19T00:10:22;8.70;;;2.42;;
29902;SDS011;30288;50.514;9.678;2023-05-19T00:12:32;9.38;;;2.45;;
29902;SDS011;30288;50.514;9.678;2023-05-19T00:14:38;8.40;;;2.97;;
29902;SDS011;30288;50.514;9.678;2023-05-19T00:16:45;8.15;;;2.90;;
29902;SDS011;30288;50.514;9.678;2023-05-19T00:18:51;8.85;;;3.08;;
29902;SDS011;30288;50.514;9.678;2023-05-19T00:20:57;7.28;;;2.92;;
29902;SDS011;30288;50.514;9.678;2023-05-19T00:23:02;12.05;;;3.10;;
29902;SDS011;30288;50.514;9.678;2023-05-19T00:25:08;10.25;;;3.10;;
29902;SDS011;30288;50.514;9.678;2023-05-19T00:27:16;6.15;;;2.38;;
29902;SDS011;30288;50.514;9.678;2023-05-19T00:29:21;9.77;;;2.90;;
29902;SDS011;30288;50.514;9.678;2023-05-19T00:31:27;7.30;;;2.80;;
29902;SDS011;30288;50.514;9.678;2023-05-19T00:33:34;5.75;;;2.42;;
29902;SDS011;30288;50.514;9.678;2023-05-19T00:35:39;12.05;;;3.45;;
29902;SDS011;30288;50.514;9.678;2023-05-19T00:37:45;11.43;;;3.15;;
29902;SDS011;30288;50.514;9.678;2023-05-19T00:39:50;7.50;;;3.35;;
29902;SDS011;30288;50.514;9.678;2023-05-19T00:41:56;8.52;;;3.13;;
29902;SDS011;30288;50.514;9.678;2023-05-19T00:44:03;10.38;;;3.42;;
29902;SDS011;30288;50.514;9.678;2023-05-19T00:46:09;8.13;;;2.90;;
29902;SDS011;30288;50.514;9.678;2023-05-19T00:48:15;8.40;;;3.35;;
29902;SDS011;30288;50.514;9.678;2023-05-19T00:50:21;10.75;;;3.33;;
29902;SDS011;30288;50.514;9.678;2023-05-19T00:52:27;7.10;;;3.13;;
29902;SDS011;30288;50.514;9.678;2023-05-19T00:54:33;8.52;;;3.10;;
29902;SDS011;30288;50.514;9.678;2023-05-19T00:56:39;12.00;;;3.50;;
29902;SDS011;30288;50.514;9.678;2023-05-19T00:58:46;13.23;;;3.40;;
29902;SDS011;30288;50.514;9.678;2023-05-19T01:00:56;8.80;;;3.60;;
29902;SDS011;30288;50.514;9.678;2023-05-19T01:03:05;13.05;;;3.20;;
29902;SDS011;30288;50.514;9.678;2023-05-19T01:05:13;11.38;;;3.08;;
29902;SDS011;30288;50.514;9.678;2023-05-19T01:07:18;9.50;;;3.72;;
29902;SDS011;30288;50.514;9.678;2023-05-19T01:09:23;11.50;;;3.45;;
29902;SDS011;30288;50.514;9.678;2023-05-19T01:11:29;9.65;;;3.72;;
29902;SDS011;30288;50.514;9.678;2023-05-19T01:13:34;9.90;;;3.80;;
29902;SDS011;30288;50.514;9.678;2023-05-19T01:15:47;10.25;;;3.42;;
29902;SDS011;30288;50.514;9.678;2023-05-19T01:18:09;15.73;;;3.55;;
29902;SDS011;30288;50.514;9.678;2023-05-19T01:20:21;11.48;;;3.50;;
29902;SDS011;30288;50.514;9.678;2023-05-19T01:22:39;9.20;;;3.47;;
29902;SDS011;30288;50.514;9.678;2023-05-19T01:25:18;11.05;;;3.67;;
29902;SDS011;30288;50.514;9.678;2023-05-19T01:30:37;10.73;;;3.42;;
29902;SDS011;30288;50.514;9.678;2023-05-19T01:32:44;12.13;;;3.22;;
29902;SDS011;30288;50.514;9.678;2023-05-19T01:34:53;10.57;;;3.45;;
29902;SDS011;30288;50.514;9.678;2023-05-19T01:37:00;12.00;;;4.40;;
29902;SDS011;30288;50.514;9.678;2023-05-19T01:39:06;10.23;;;3.40;;
29902;SDS011;30288;50.514;9.678;2023-05-19T01:41:12;13.57;;;3.38;;
29902;SDS011;30288;50.514;9.678;2023-05-19T01:43:19;11.68;;;3.88;;
29902;SDS011;30288;50.514;9.678;2023-05-19T01:45:29;8.15;;;3.72;;
29902;SDS011;30288;50.514;9.678;2023-05-19T01:47:40;14.13;;;4.53;;
29902;SDS011;30288;50.514;9.678;2023-05-19T01:49:47;13.27;;;3.72;;
29902;SDS011;30288;50.514;9.678;2023-05-19T01:51:53;12.93;;;3.40;;
29902;SDS011;30288;50.514;9.678;2023-05-19T01:54:00;10.50;;;3.33;;
29902;SDS011;30288;50.514;9.678;2023-05-19T01:56:06;10.23;;;3.67;;
29902;SDS011;30288;50.514;9.678;2023-05-19T01:58:14;16.60;;;4.13;;
29902;SDS011;30288;50.514;9.678;2023-05-19T02:00:28;10.20;;;3.92;;
29902;SDS011;30288;50.514;9.678;2023-05-19T02:02:52;9.02;;;3.60;;
29902;SDS011;30288;50.514;9.678;2023-05-19T02:05:08;10.98;;;3.25;;
29902;SDS011;30288;50.514;9.678;2023-05-19T02:07:34;11.73;;;2.85;;
29902;SDS011;30288;50.514;9.678;2023-05-19T02:09:50;10.07;;;3.83;;
29902;SDS011;30288;50.514;9.678;2023-05-19T02:12:05;8.05;;;3.78;;
29902;SDS011;30288;50.514;9.678;2023-05-19T02:14:19;10.52;;;3.72;;
29902;SDS011;30288;50.514;9.678;2023-05-19T02:16:33;8.30;;;3.60;;
29902;SDS011;30288;50.514;9.678;2023-05-19T02:18:44;13.52;;;3.92;;
29902;SDS011;30288;50.514;9.678;2023-05-19T02:20:49;12.77;;;3.70;;
29902;SDS011;30288;50.514;9.678;2023-05-19T02:22:55;10.77;;;3.90;;
29902;SDS011;30288;50.514;9.678;2023-05-19T02:25:00;9.93;;;4.45;;
29902;SDS011;30288;50.514;9.678;2023-05-19T02:27:06;10.38;;;4.10;;
29902;SDS011;30288;50.514;9.678;2023-05-19T02:29:11;7.75;;;3.15;;
29902;SDS011;30288;50.514;9.678;2023-05-19T02:31:17;11.00;;;4.05;;
29902;SDS011;30288;50.514;9.678;2023-05-19T02:33:22;10.30;;;4.63;;
29902;SDS011;30288;50.514;9.678;2023-05-19T02:35:30;10.90;;;4.28;;
29902;SDS011;30288;50.514;9.678;2023-05-19T02:37:35;9.38;;;3.58;;
29902;SDS011;30288;50.514;9.678;2023-05-19T02:39:41;16.40;;;4.60;;
29902;SDS011;30288;50.514;9.678;2023-05-19T02:41:46;9.15;;;3.70;;
29902;SDS011;30288;50.514;9.678;2023-05-19T02:43:52;9.02;;;3.60;;
29902;SDS011;30288;50.514;9.678;2023-05-19T02:45:57;11.02;;;4.00;;
29902;SDS011;30288;50.514;9.678;2023-05-19T02:48:03;9.43;;;3.88;;
29902;SDS011;30288;50.514;9.678;2023-05-19T02:50:08;16.00;;;4.50;;
29902;SDS011;30288;50.514;9.678;2023-05-19T02:52:17;12.15;;;3.97;;
29902;SDS011;30288;50.514;9.678;2023-05-19T02:54:22;11.57;;;4.03;;
29902;SDS011;30288;50.514;9.678;2023-05-19T02:56:27;17.30;;;4.40;;
29902;SDS011;30288;50.514;9.678;2023-05-19T02:58:33;9.63;;;3.67;;
29902;SDS011;30288;50.514;9.678;2023-05-19T03:00:38;8.90;;;4.43;;
29902;SDS011;30288;50.514;9.678;2023-05-19T03:02:45;9.65;;;4.07;;
29902;SDS011;30288;50.514;9.678;2023-05-19T03:04:53;10.68;;;4.57;;
29902;SDS011;30288;50.514;9.678;2023-05-19T03:06:58;12.98;;;4.38;;
29902;SDS011;30288;50.514;9.678;2023-05-19T03:09:06;15.27;;;4.55;;
29902;SDS011;30288;50.514;9.678;2023-05-19T03:11:12;11.05;;;4.35;;
29902;SDS011;30288;50.514;9.678;2023-05-19T03:13:17;14.73;;;4.05;;
29902;SDS011;30288;50.514;9.678;2023-05-19T03:15:22;11.82;;;4.72;;
29902;SDS011;30288;50.514;9.678;2023-05-19T03:17:28;7.88;;;4.22;;
29902;SDS011;30288;50.514;9.678;2023-05-19T03:19:35;9.88;;;4.07;;
29902;SDS011;30288;50.514;9.678;2023-05-19T03:21:42;13.38;;;3.90;;
29902;SDS011;30288;50.514;9.678;2023-05-19T03:23:48;11.60;;;4.07;;
29902;SDS011;30288;50.514;9.678;2023-05-19T03:25:55;8.57;;;3.75;;
29902;SDS011;30288;50.514;9.678;2023-05-19T03:28:01;10.25;;;3.75;;
29902;SDS011;30288;50.514;9.678;2023-05-19T03:30:08;9.90;;;3.80;;
29902;SDS011;30288;50.514;9.678;2023-05-19T03:32:44;11.85;;;4.43;;
29902;SDS011;30288;50.514;9.678;2023-05-19T03:34:52;8.05;;;3.85;;
29902;SDS011;30288;50.514;9.678;2023-05-19T03:36:58;10.20;;;4.10;;
29902;SDS011;30288;50.514;9.678;2023-05-19T03:39:04;7.97;;;3.72;;
29902;SDS011;30288;50.514;9.678;2023-05-19T03:41:12;13.00;;;4.20;;
29902;SDS011;30288;50.514;9.678;2023-05-19T03:43:17;9.70;;;3.70;;
29902;SDS011;30288;50.514;9.678;2023-05-19T03:45:29;10.60;;;4.18;;
29902;SDS011;30288;50.514;9.678;2023-05-19T03:47:44;10.52;;;3.72;;
29902;SDS011;30288;50.514;9.678;2023-05-19T03:50:25;11.07;;;4.15;;
29902;SDS011;30288;50.514;9.678;2023-05-19T03:52:46;10.18;;;4.32;;
29902;SDS011;30288;50.514;9.678;2023-05-19T03:55:00;8.90;;;4.15;;
29902;SDS011;30288;50.514;9.678;2023-05-19T03:57:09;14.18;;;4.75;;
29902;SDS011;30288;50.514;9.678;2023-05-19T03:59:14;7.57;;;3.47;;
29902;SDS011;30288;50.514;9.678;2023-05-19T04:01:19;8.43;;;3.97;;
29902;SDS011;30288;50.514;9.678;2023-05-19T04:03:25;9.65;;;4.10;;
29902;SDS011;30288;50.514;9.678;2023-05-19T04:05:30;9.35;;;3.70;;
29902;SDS011;30288;50.514;9.678;2023-05-19T04:07:35;10.32;;;4.00;;
29902;SDS011;30288;50.514;9.678;2023-05-19T04:09:41;10.65;;;4.05;;
29902;SDS011;30288;50.514;9.678;2023-05-19T04:11:47;8.32;;;4.22;;
29902;SDS011;30288;50.514;9.678;2023-05-19T04:13:54;9.93;;;4.10;;
29902;SDS011;30288;50.514;9.678;2023-05-19T04:16:00;15.85;;;4.43;;
29902;SDS011;30288;50.514;9.678;2023-05-19T04:18:06;10.48;;;4.25;;
29902;SDS011;30288;50.514;9.678;2023-05-19T04:20:13;9.82;;;4.07;;
29902;SDS011;30288;50.514;9.678;2023-05-19T04:22:19;8.18;;;4.07;;
29902;SDS011;30288;50.514;9.678;2023-05-19T04:24:24;11.07;;;4.30;;
29902;SDS011;30288;50.514;9.678;2023-05-19T04:26:29;11.38;;;4.10;;
29902;SDS011;30288;50.514;9.678;2023-05-19T04:28:35;10.93;;;3.80;;
29902;SDS011;30288;50.514;9.678;2023-05-19T04:30:45;9.95;;;3.95;;
29902;SDS011;30288;50.514;9.678;2023-05-19T04:32:51;11.10;;;4.15;;
29902;SDS011;30288;50.514;9.678;2023-05-19T04:34:59;11.27;;;4.78;;
29902;SDS011;30288;50.514;9.678;2023-05-19T04:37:05;9.18;;;4.38;;
29902;SDS011;30288;50.514;9.678;2023-05-19T04:39:11;10.43;;;4.07;;
29902;SDS011;30288;50.514;9.678;2023-05-19T04:41:19;14.82;;;4.57;;
29902;SDS011;30288;50.514;9.678;2023-05-19T04:43:24;10.82;;;4.13;;
29902;SDS011;30288;50.514;9.678;2023-05-19T04:45:29;14.80;;;4.53;;
29902;SDS011;30288;50.514;9.678;2023-05-19T04:47:41;13.00;;;4.47;;
29902;SDS011;30288;50.514;9.678;2023-05-19T04:49:47;11.43;;;4.43;;
29902;SDS011;30288;50.514;9.678;2023-05-19T04:51:56;12.32;;;4.82;;
29902;SDS011;30288;50.514;9.678;2023-05-19T04:54:03;14.90;;;4.15;;
29902;SDS011;30288;50.514;9.678;2023-05-19T04:56:09;12.32;;;4.43;;
29902;SDS011;30288;50.514;9.678;2023-05-19T04:58:18;9.98;;;4.53;;
29902;SDS011;30288;50.514;9.678;2023-05-19T05:00:26;13.68;;;4.47;;
29902;SDS011;30288;50.514;9.678;2023-05-19T05:02:35;8.60;;;3.95;;
29902;SDS011;30288;50.514;9.678;2023-05-19T05:04:44;10.30;;;4.45;;
29902;SDS011;30288;50.514;9.678;2023-05-19T05:06:50;13.32;;;4.82;;
29902;SDS011;30288;50.514;9.678;2023-05-19T05:08:56;9.88;;;4.40;;
29902;SDS011;30288;50.514;9.678;2023-05-19T05:11:05;10.80;;;5.07;;
29902;SDS011;30288;50.514;9.678;2023-05-19T05:13:12;14.30;;;5.03;;
29902;SDS011;30288;50.514;9.678;2023-05-19T05:15:18;8.73;;;3.67;;
29902;SDS011;30288;50.514;9.678;2023-05-19T05:17:26;9.68;;;4.63;;
29902;SDS011;30288;50.514;9.678;2023-05-19T05:19:32;11.15;;;4.28;;
29902;SDS011;30288;50.514;9.678;2023-05-19T05:21:42;11.90;;;4.22;;
29902;SDS011;30288;50.514;9.678;2023-05-19T05:23:49;16.02;;;5.28;;
29902;SDS011;30288;50.514;9.678;2023-05-19T05:25:58;8.43;;;4.28;;
29902;SDS011;30288;50.514;9.678;2023-05-19T05:28:08;11.70;;;4.50;;
29902;SDS011;30288;50.514;9.678;2023-05-19T05:30:15;14.85;;;4.75;;
29902;SDS011;30288;50.514;9.678;2023-05-19T05:32:20;10.55;;;4.60;;
29902;SDS011;30288;50.514;9.678;2023-05-19T05:34:28;8.82;;;4.63;;
29902;SDS011;30288;50.514;9.678;2023-05-19T05:36:34;12.27;;;5.07;;
29902;SDS011;30288;50.514;9.678;2023-05-19T05:38:43;12.80;;;5.55;;
29902;SDS011;30288;50.514;9.678;2023-05-19T05:40:49;15.48;;;5.18;;
29902;SDS011;30288;50.514;9.678;2023-05-19T05:42:54;10.10;;;5.00;;
29902;SDS011;30288;50.514;9.678;2023-05-19T05:45:04;10.77;;;5.22;;
29902;SDS011;30288;50.514;9.678;2023-05-19T05:47:12;11.00;;;5.32;;
29902;SDS011;30288;50.514;9.678;2023-05-19T05:49:20;12.40;;;4.70;;
29902;SDS011;30288;50.514;9.678;2023-05-19T05:51:26;9.13;;;4.40;;
29902;SDS011;30288;50.514;9.678;2023-05-19T05:53:35;14.93;;;4.65;;
29902;SDS011;30288;50.514;9.678;2023-05-19T05:55:49;12.05;;;4.60;;
29902;SDS011;30288;50.514;9.678;2023-05-19T05:58:00;14.13;;;4.55;;
29902;SDS011;30288;50.514;9.678;2023-05-19T06:00:06;14.73;;;4.47;;
29902;SDS011;30288;50.514;9.678;2023-05-19T06:02:16;10.68;;;3.97;;
29902;SDS011;30288;50.514;9.678;2023-05-19T06:04:22;15.10;;;4.93;;
29902;SDS011;30288;50.514;9.678;2023-05-19T06:06:28;15.10;;;3.80;;
29902;SDS011;30288;50.514;9.678;2023-05-19T06:08:35;10.02;;;3.60;;
29902;SDS011;30288;50.514;9.678;2023-05-19T06:10:41;13.50;;;4.50;;
29902;SDS011;30288;50.514;9.678;2023-05-19T06:12:50;12.23;;;3.85;;
29902;SDS011;30288;50.514;9.678;2023-05-19T06:14:57;10.68;;;3.22;;
29902;SDS011;30288;50.514;9.678;2023-05-19T06:17:22;10.48;;;3.28;;
29902;SDS011;30288;50.514;9.678;2023-05-19T06:19:27;10.48;;;4.13;;
29902;SDS011;30288;50.514;9.678;2023-05-19T06:21:33;11.07;;;3.70;;
29902;SDS011;30288;50.514;9.678;2023-05-19T06:23:38;12.05;;;3.75;;
29902;SDS011;30288;50.514;9.678;2023-05-19T06:25:45;10.32;;;3.30;;
29902;SDS011;30288;50.514;9.678;2023-05-19T06:27:52;7.53;;;3.05;;
29902;SDS011;30288;50.514;9.678;2023-05-19T06:29:58;9.30;;;3.05;;
29902;SDS011;30288;50.514;9.678;2023-05-19T06:32:08;12.48;;;3.25;;
29902;SDS011;30288;50.514;9.678;2023-05-19T06:34:14;8.50;;;3.15;;
29902;SDS011;30288;50.514;9.678;2023-05-19T06:36:20;9.98;;;3.00;;
29902;SDS011;30288;50.514;9.678;2023-05-19T06:38:29;9.95;;;2.85;;
29902;SDS011;30288;50.514;9.678;2023-05-19T06:40:34;9.32;;;2.80;;
29902;SDS011;30288;50.514;9.678;2023-05-19T06:42:40;10.27;;;3.38;;
29902;SDS011;30288;50.514;9.678;2023-05-19T06:45:07;11.98;;;3.10;;
29902;SDS011;30288;50.514;9.678;2023-05-19T06:47:14;11.55;;;3.10;;
29902;SDS011;30288;50.514;9.678;2023-05-19T06:49:19;12.02;;;3.03;;
29902;SDS011;30288;50.514;9.678;2023-05-19T06:51:24;10.20;;;3.05;;
29902;SDS011;30288;50.514;9.678;2023-05-19T06:53:30;10.90;;;2.85;;
29902;SDS011;30288;50.514;9.678;2023-05-19T06:55:41;12.00;;;2.85;;
29902;SDS011;30288;50.514;9.678;2023-05-19T06:58:01;10.38;;;3.00;;
29902;SDS011;30288;50.514;9.678;2023-05-19T07:00:10;11.40;;;3.50;;
29902;SDS011;30288;50.514;9.678;2023-05-19T07:02:25;10.00;;;2.75;;
29902;SDS011;30288;50.514;9.678;2023-05-19T07:04:31;12.27;;;3.25;;
29902;SDS011;30288;50.514;9.678;2023-05-19T07:06:37;9.10;;;2.50;;
29902;SDS011;30288;50.514;9.678;2023-05-19T07:08:42;9.90;;;3.25;;
29902;SDS011;30288;50.514;9.678;2023-05-19T07:10:48;8.23;;;2.20;;
29902;SDS011;30288;50.514;9.678;2023-05-19T07:12:53;10.90;;;2.90;;
29902;SDS011;30288;50.514;9.678;2023-05-19T07:15:02;12.98;;;3.17;;
29902;SDS011;30288;50.514;9.678;2023-05-19T07:17:13;9.48;;;3.08;;
29902;SDS011;30288;50.514;9.678;2023-05-19T07:19:19;16.25;;;3.22;;
29902;SDS011;30288;50.514;9.678;2023-05-19T07:21:26;13.00;;;2.92;;
29902;SDS011;30288;50.514;9.678;2023-05-19T07:23:31;11.90;;;2.80;;
29902;SDS011;30288;50.514;9.678;2023-05-19T07:25:36;9.10;;;2.63;;
29902;SDS011;30288;50.514;9.678;2023-05-19T07:27:42;11.95;;;2.67;;
29902;SDS011;30288;50.514;9.678;2023-05-19T07:29:47;10.30;;;2.55;;
29902;SDS011;30288;50.514;9.678;2023-05-19T07:31:52;11.07;;;2.60;;
29902;SDS011;30288;50.514;9.678;2023-05-19T07:34:01;8.60;;;3.05;;
29902;SDS011;30288;50.514;9.678;2023-05-19T07:36:06;10.40;;;2.80;;
29902;SDS011;30288;50.514;9.678;2023-05-19T07:38:12;8.73;;;2.33;;
29902;SDS011;30288;50.514;9.678;2023-05-19T07:40:17;7.97;;;2.40;;
29902;SDS011;30288;50.514;9.678;2023-05-19T07:42:22;9.27;;;3.03;;
29902;SDS011;30288;50.514;9.678;2023-05-19T07:44:28;8.50;;;2.70;;
29902;SDS011;30288;50.514;9.678;2023-05-19T07:46:35;9.10;;;2.40;;
29902;SDS011;30288;50.514;9.678;2023-05-19T07:48:40;9.27;;;2.40;;
29902;SDS011;30288;50.514;9.678;2023-05-19T07:50:49;8.18;;;2.17;;
29902;SDS011;30288;50.514;9.678;2023-05-19T07:52:55;12.95;;;2.60;;
29902;SDS011;30288;50.514;9.678;2023-05-19T07:55:00;9.05;;;2.05;;
29902;SDS011;30288;50.514;9.678;2023-05-19T07:57:05;10.52;;;2.72;;
29902;SDS011;30288;50.514;9.678;2023-05-19T07:59:10;7.72;;;2.63;;
29902;SDS011;30288;50.514;9.678;2023-05-19T08:01:16;10.23;;;2.42;;
29902;SDS011;30288;50.514;9.678;2023-05-19T08:03:21;9.50;;;2.20;;
29902;SDS011;30288;50.514;9.678;2023-05-19T08:05:27;7.28;;;2.15;;
29902;SDS011;30288;50.514;9.678;2023-05-19T08:07:35;9.80;;;2.90;;
29902;SDS011;30288;50.514;9.678;2023-05-19T08:09:40;6.65;;;2.03;;
29902;SDS011;30288;50.514;9.678;2023-05-19T08:11:45;9.93;;;2.83;;
29902;SDS011;30288;50.514;9.678;2023-05-19T08:13:50;11.70;;;2.55;;
29902;SDS011;30288;50.514;9.678;2023-05-19T08:15:55;9.30;;;2.42;;
29902;SDS011;30288;50.514;9.678;2023-05-19T08:18:01;7.30;;;2.33;;
29902;SDS011;30288;50.514;9.678;2023-05-19T08:20:07;10.48;;;2.13;;
29902;SDS011;30288;50.514;9.678;2023-05-19T08:22:13;10.07;;;2.25;;
29902;SDS011;30288;50.514;9.678;2023-05-19T08:24:21;8.60;;;2.33;;
29902;SDS011;30288;50.514;9.678;2023-05-19T08:26:27;9.05;;;2.63;;
29902;SDS011;30288;50.514;9.678;2023-05-19T08:28:32;5.97;;;2.08;;
29902;SDS011;30288;50.514;9.678;2023-05-19T08:30:38;9.68;;;2.45;;
29902;SDS011;30288;50.514;9.678;2023-05-19T08:32:43;12.02;;;2.78;;
29902;SDS011;30288;50.514;9.678;2023-05-19T08:34:49;5.70;;;2.17;;
29902;SDS011;30288;50.514;9.678;2023-05-19T08:36:54;8.20;;;2.03;;
29902;SDS011;30288;50.514;9.678;2023-05-19T08:39:00;12.32;;;2.35;;
29902;SDS011;30288;50.514;9.678;2023-05-19T08:41:08;10.00;;;2.25;;
29902;SDS011;30288;50.514;9.678;2023-05-19T08:43:13;5.75;;;2.28;;
29902;SDS011;30288;50.514;9.678;2023-05-19T08:45:19;10.73;;;2.63;;
29902;SDS011;30288;50.514;9.678;2023-05-19T08:47:25;8.25;;;2.08;;
29902;SDS011;30288;50.514;9.678;2023-05-19T08:49:31;7.55;;;1.73;;
29902;SDS011;30288;50.514;9.678;2023-05-19T08:51:41;8.20;;;2.30;;
29902;SDS011;30288;50.514;9.678;2023-05-19T08:53:55;8.35;;;1.92;;
29902;SDS011;30288;50.514;9.678;2023-05-19T08:56:09;7.15;;;2.00;;
29902;SDS011;30288;50.514;9.678;2023-05-19T08:58:18;10.25;;;1.98;;
29902;SDS011;30288;50.514;9.678;2023-05-19T09:00:26;9.55;;;2.17;;
29902;SDS011;30288;50.514;9.678;2023-05-19T09:02:33;6.78;;;2.22;;
29902;SDS011;30288;50.514;9.678;2023-05-19T09:05:00;6.78;;;1.90;;
29902;SDS011;30288;50.514;9.678;2023-05-19T09:07:06;7.35;;;2.42;;
29902;SDS011;30288;50.514;9.678;2023-05-19T09:09:12;6.35;;;2.08;;
29902;SDS011;30288;50.514;9.678;2023-05-19T09:11:20;8.73;;;2.00;;
29902;SDS011;30288;50.514;9.678;2023-05-19T09:13:27;8.27;;;2.05;;
29902;SDS011;30288;50.514;9.678;2023-05-19T09:15:32;7.10;;;1.80;;
29902;SDS011;30288;50.514;9.678;2023-05-19T09:17:38;7.40;;;2.20;;
29902;SDS011;30288;50.514;9.678;2023-05-19T09:19:45;7.10;;;1.60;;
29902;SDS011;30288;50.514;9.678;2023-05-19T09:21:56;8.50;;;2.33;;
29902;SDS011;30288;50.514;9.678;2023-05-19T09:24:04;3.55;;;1.60;;
29902;SDS011;30288;50.514;9.678;2023-05-19T09:26:11;11.23;;;1.92;;
29902;SDS011;30288;50.514;9.678;2023-05-19T09:28:24;9.52;;;2.25;;
29902;SDS011;30288;50.514;9.678;2023-05-19T09:30:31;7.00;;;1.80;;
29902;SDS011;30288;50.514;9.678;2023-05-19T09:32:37;5.38;;;1.80;;
29902;SDS011;30288;50.514;9.678;2023-05-19T09:34:42;8.05;;;1.60;;
29902;SDS011;30288;50.514;9.678;2023-05-19T09:36:48;6.53;;;1.77;;
29902;SDS011;30288;50.514;9.678;2023-05-19T09:38:54;5.78;;;1.90;;
29902;SDS011;30288;50.514;9.678;2023-05-19T09:40:59;7.15;;;1.90;;
29902;SDS011;30288;50.514;9.678;2023-05-19T09:43:06;5.53;;;1.92;;
29902;SDS011;30288;50.514;9.678;2023-05-19T09:45:14;4.78;;;1.63;;
29902;SDS011;30288;50.514;9.678;2023-05-19T09:47:19;7.50;;;2.08;;
29902;SDS011;30288;50.514;9.678;2023-05-19T09:49:25;7.72;;;1.90;;
29902;SDS011;30288;50.514;9.678;2023-05-19T09:51:33;4.60;;;1.60;;
29902;SDS011;30288;50.514;9.678;2023-05-19T09:53:39;9.10;;;2.25;;
29902;SDS011;30288;50.514;9.678;2023-05-19T09:55:45;8.05;;;2.03;;
29902;SDS011;30288;50.514;9.678;2023-05-19T09:57:51;7.13;;;1.85;;
29902;SDS011;30288;50.514;9.678;2023-05-19T10:00:01;5.43;;;1.50;;
29902;SDS011;30288;50.514;9.678;2023-05-19T10:02:22;8.93;;;2.15;;
29902;SDS011;30288;50.514;9.678;2023-05-19T10:04:29;3.75;;;1.70;;
29902;SDS011;30288;50.514;9.678;2023-05-19T10:06:35;5.85;;;2.05;;
29902;SDS011;30288;50.514;9.678;2023-05-19T10:08:40;8.20;;;2.17;;
29902;SDS011;30288;50.514;9.678;2023-05-19T10:10:46;5.22;;;2.08;;
29902;SDS011;30288;50.514;9.678;2023-05-19T10:12:52;7.13;;;2.53;;
29902;SDS011;30288;50.514;9.678;2023-05-19T10:14:58;7.18;;;1.90;;
29902;SDS011;30288;50.514;9.678;2023-05-19T10:17:04;5.18;;;1.77;;
29902;SDS011;30288;50.514;9.678;2023-05-19T10:19:14;8.23;;;2.28;;
29902;SDS011;30288;50.514;9.678;2023-05-19T10:21:19;6.45;;;2.20;;
29902;SDS011;30288;50.514;9.678;2023-05-19T10:23:25;5.53;;;2.00;;
29902;SDS011;30288;50.514;9.678;2023-05-19T10:25:30;9.52;;;2.13;;
29902;SDS011;30288;50.514;9.678;2023-05-19T10:27:39;6.90;;;1.83;;
29902;SDS011;30288;50.514;9.678;2023-05-19T10:29:49;6.15;;;1.92;;
29902;SDS011;30288;50.514;9.678;2023-05-19T10:31:58;6.47;;;2.47;;
29902;SDS011;30288;50.514;9.678;2023-05-19T10:34:22;6.90;;;1.92;;
29902;SDS011;30288;50.514;9.678;2023-05-19T10:36:58;8.30;;;2.10;;
29902;SDS011;30288;50.514;9.678;2023-05-19T10:39:19;6.32;;;2.10;;
29902;SDS011;30288;50.514;9.678;2023-05-19T10:41:30;7.07;;;1.90;;
29902;SDS011;30288;50.514;9.678;2023-05-19T10:43:48;6.50;;;1.70;;
29902;SDS011;30288;50.514;9.678;2023-05-19T10:45:59;5.40;;;2.33;;
29902;SDS011;30288;50.514;9.678;2023-05-19T10:48:06;5.07;;;1.60;;
29902;SDS011;30288;50.514;9.678;2023-05-19T10:50:17;7.85;;;2.10;;
29902;SDS011;30288;50.514;9.678;2023-05-19T10:52:24;4.82;;;1.80;;
29902;SDS011;30288;50.514;9.678;2023-05-19T10:54:40;6.63;;;1.92;;
29902;SDS011;30288;50.514;9.678;2023-05-19T10:56:49;8.32;;;2.05;;
29902;SDS011;30288;50.514;9.678;2023-05-19T11:01:07;5.57;;;1.60;;
29902;SDS011;30288;50.514;9.678;2023-05-19T11:03:17;5.07;;;2.03;;
29902;SDS011;30288;50.514;9.678;2023-05-19T11:05:29;5.15;;;2.20;;
29902;SDS011;30288;50.514;9.678;2023-05-19T11:07:34;8.35;;;1.80;;
29902;SDS011;30288;50.514;9.678;2023-05-19T11:09:40;4.30;;;1.67;;
29902;SDS011;30288;50.514;9.678;2023-05-19T11:11:46;7.13;;;2.15;;
29902;SDS011;30288;50.514;9.678;2023-05-19T11:13:55;6.85;;;2.03;;
29902;SDS011;30288;50.514;9.678;2023-05-19T11:16:05;7.45;;;2.15;;
29902;SDS011;30288;50.514;9.678;2023-05-19T11:18:12;5.88;;;2.17;;
29902;SDS011;30288;50.514;9.678;2023-05-19T11:20:21;9.05;;;2.45;;
29902;SDS011;30288;50.514;9.678;2023-05-19T11:22:32;7.28;;;2.10;;
29902;SDS011;30288;50.514;9.678;2023-05-19T11:24:41;6.10;;;1.73;;
29902;SDS011;30288;50.514;9.678;2023-05-19T11:26:50;4.80;;;1.83;;
29902;SDS011;30288;50.514;9.678;2023-05-19T11:28:58;5.70;;;2.03;;
29902;SDS011;30288;50.514;9.678;2023-05-19T11:31:04;7.80;;;2.33;;
29902;SDS011;30288;50.514;9.678;2023-05-19T11:33:11;4.93;;;1.95;;
29902;SDS011;30288;50.514;9.678;2023-05-19T11:35:20;5.45;;;1.80;;
29902;SDS011;30288;50.514;9.678;2023-05-19T11:37:26;9.93;;;2.10;;
29902;SDS011;30288;50.514;9.678;2023-05-19T11:39:37;7.53;;;2.08;;
29902;SDS011;30288;50.514;9.678;2023-05-19T11:41:44;7.13;;;1.83;;
29902;SDS011;30288;50.514;9.678;2023-05-19T11:43:49;5.90;;;2.03;;
29902;SDS011;30288;50.514;9.678;2023-05-19T11:45:54;7.05;;;2.22;;
29902;SDS011;30288;50.514;9.678;2023-05-19T11:48:00;5.68;;;2.00;;
29902;SDS011;30288;50.514;9.678;2023-05-19T11:50:06;5.75;;;2.20;;
29902;SDS011;30288;50.514;9.678;2023-05-19T11:52:14;5.70;;;2.03;;
29902;SDS011;30288;50.514;9.678;2023-05-19T11:54:19;7.07;;;2.05;;
29902;SDS011;30288;50.514;9.678;2023-05-19T11:56:27;6.93;;;2.05;;
29902;SDS011;30288;50.514;9.678;2023-05-19T11:58:38;8.77;;;2.25;;
29902;SDS011;30288;50.514;9.678;2023-05-19T12:00:44;5.57;;;2.10;;
29902;SDS011;30288;50.514;9.678;2023-05-19T12:02:49;10.45;;;2.88;;
29902;SDS011;30288;50.514;9.678;2023-05-19T12:04:55;9.02;;;2.30;;
29902;SDS011;30288;50.514;9.678;2023-05-19T12:07:01;5.10;;;2.22;;
29902;SDS011;30288;50.514;9.678;2023-05-19T12:09:07;6.57;;;2.10;;
29902;SDS011;30288;50.514;9.678;2023-05-19T12:11:12;8.77;;;2.30;;
29902;SDS011;30288;50.514;9.678;2023-05-19T12:13:21;7.80;;;2.15;;
29902;SDS011;30288;50.514;9.678;2023-05-19T12:15:27;6.00;;;2.25;;
29902;SDS011;30288;50.514;9.678;2023-05-19T12:17:33;8.93;;;2.30;;
29902;SDS011;30288;50.514;9.678;2023-05-19T12:19:38;5.22;;;1.98;;
29902;SDS011;30288;50.514;9.678;2023-05-19T12:21:44;5.95;;;2.08;;
29902;SDS011;30288;50.514;9.678;2023-05-19T12:23:49;5.85;;;2.10;;
29902;SDS011;30288;50.514;9.678;2023-05-19T12:25:55;4.50;;;1.80;;
29902;SDS011;30288;50.514;9.678;2023-05-19T12:28:02;8.35;;;2.08;;
29902;SDS011;30288;50.514;9.678;2023-05-19T12:30:11;6.05;;;2.08;;
29902;SDS011;30288;50.514;9.678;2023-05-19T12:32:16;7.72;;;2.53;;
29902;SDS011;30288;50.514;9.678;2023-05-19T12:34:21;7.40;;;2.10;;
29902;SDS011;30288;50.514;9.678;2023-05-19T12:36:27;5.25;;;2.35;;
29902;SDS011;30288;50.514;9.678;2023-05-19T12:38:32;4.63;;;2.13;;
29902;SDS011;30288;50.514;9.678;2023-05-19T12:40:40;5.88;;;2.00;;
29902;SDS011;30288;50.514;9.678;2023-05-19T12:42:46;6.45;;;2.28;;
29902;SDS011;30288;50.514;9.678;2023-05-19T12:44:58;5.70;;;2.10;;
29902;SDS011;30288;50.514;9.678;2023-05-19T12:47:08;7.88;;;2.15;;
29902;SDS011;30288;50.514;9.678;2023-05-19T12:49:14;6.25;;;2.28;;
29902;SDS011;30288;50.514;9.678;2023-05-19T12:51:20;5.72;;;2.15;;
29902;SDS011;30288;50.514;9.678;2023-05-19T12:53:25;5.32;;;2.20;;